createdAt,value
2019-05-26T00:00:46.258Z,90.29
2019-05-26T00:03:14.826Z,90.24
2019-05-26T00:05:43.247Z,90.42
2019-05-26T00:08:11.636Z,90.27
2019-05-26T00:10:40.045Z,90.72
2019-05-26T00:13:08.447Z,90.86
2019-05-26T00:15:36.862Z,90.64
2019-05-26T00:18:05.254Z,90.73
2019-05-26T00:20:33.668Z,90.93
2019-05-26T00:23:02.069Z,91.06
2019-05-26T00:25:30.494Z,91.07
2019-05-26T00:27:58.887Z,91.66
2019-05-26T00:30:27.301Z,92.25
2019-05-26T00:32:55.710Z,92.50
2019-05-26T00:35:24.129Z,92.57
2019-05-26T00:37:52.517Z,92.58
2019-05-26T00:40:20.999Z,92.54
2019-05-26T00:42:49.400Z,91.84
2019-05-26T00:45:18.074Z,91.87
2019-05-26T00:47:46.465Z,92.22
2019-05-26T00:50:16.813Z,92.84
2019-05-26T00:52:45.287Z,92.56
2019-05-26T00:55:14.445Z,92.82
2019-05-26T00:57:42.844Z,92.83
2019-05-26T01:00:11.696Z,92.81
2019-05-26T01:02:40.204Z,92.14
2019-05-26T01:05:09.577Z,92.29
2019-05-26T01:07:38.340Z,92.99
2019-05-26T01:10:09.774Z,92.91
2019-05-26T01:12:38.156Z,93.13
2019-05-26T01:15:07.812Z,93.45
2019-05-26T01:17:36.277Z,93.66
2019-05-26T01:20:06.834Z,93.46
2019-05-26T01:22:35.248Z,93.00
2019-05-26T01:25:05.220Z,92.53
2019-05-26T01:27:33.623Z,92.77
2019-05-26T01:30:02.212Z,92.59
2019-05-26T01:32:30.738Z,92.77
2019-05-26T01:34:59.138Z,93.06
2019-05-26T01:37:27.635Z,93.39
2019-05-26T01:39:56.035Z,93.02
2019-05-26T01:42:24.444Z,93.41
2019-05-26T01:44:52.840Z,93.80
2019-05-26T01:47:21.251Z,94.35
2019-05-26T01:49:49.655Z,93.94
2019-05-26T01:52:18.068Z,93.56
2019-05-26T01:54:46.477Z,93.62
2019-05-26T01:57:14.884Z,93.72
2019-05-26T01:59:43.314Z,93.17
2019-05-26T02:02:11.732Z,93.57
2019-05-26T02:04:40.131Z,92.92
2019-05-26T02:07:08.553Z,93.13
2019-05-26T02:09:36.950Z,93.36
2019-05-26T02:12:05.629Z,93.62
2019-05-26T02:14:34.030Z,93.88
2019-05-26T02:17:02.445Z,93.99
2019-05-26T02:19:30.852Z,93.97
2019-05-26T02:21:59.268Z,93.74
2019-05-26T02:24:27.670Z,94.22
2019-05-26T02:26:56.083Z,94.80
2019-05-26T02:29:24.477Z,94.75
2019-05-26T02:31:52.888Z,94.72
2019-05-26T02:34:21.288Z,94.24
2019-05-26T02:36:49.698Z,94.64
2019-05-26T02:39:18.096Z,94.58
2019-05-26T02:41:46.539Z,94.51
2019-05-26T02:44:14.908Z,94.67
2019-05-26T02:46:43.329Z,94.90
2019-05-26T02:49:11.727Z,94.82
2019-05-26T02:51:40.139Z,94.18
2019-05-26T02:54:08.543Z,94.45
2019-05-26T02:56:37.332Z,94.44
2019-05-26T02:59:05.747Z,94.54
2019-05-26T03:01:34.398Z,94.69
2019-05-26T03:04:02.917Z,94.53
2019-05-26T03:06:33.186Z,94.53
2019-05-26T03:09:20.856Z,94.41
2019-05-26T03:11:35.183Z,94.48
2019-05-26T03:14:04.853Z,94.64
2019-05-26T03:16:36.283Z,94.28
2019-05-26T03:19:04.957Z,94.25
2019-05-26T03:21:35.212Z,94.45
2019-05-26T03:24:04.721Z,94.43
2019-05-26T03:26:33.133Z,94.42
2019-05-26T03:29:01.546Z,94.13
2019-05-26T03:31:30.033Z,94.32
2019-05-26T03:33:58.517Z,94.49
2019-05-26T03:36:26.910Z,94.58
2019-05-26T03:38:55.318Z,94.56
2019-05-26T03:41:23.730Z,94.65
2019-05-26T03:43:52.142Z,94.27
2019-05-26T03:46:20.744Z,93.97
2019-05-26T03:48:49.441Z,94.03
2019-05-26T03:51:17.834Z,94.28
2019-05-26T03:53:46.258Z,94.21
2019-05-26T03:56:14.657Z,93.86
2019-05-26T03:58:43.144Z,93.84
2019-05-26T04:01:11.616Z,93.76
2019-05-26T04:03:40.171Z,93.54
2019-05-26T04:06:08.745Z,93.26
2019-05-26T04:08:37.163Z,93.21
2019-05-26T04:11:05.926Z,93.09
2019-05-26T04:13:34.397Z,92.98
2019-05-26T04:16:02.871Z,93.06
2019-05-26T04:18:31.289Z,92.99
2019-05-26T04:20:59.709Z,92.50
2019-05-26T04:23:28.132Z,91.87
2019-05-26T04:25:56.538Z,91.95
2019-05-26T04:28:24.952Z,91.86
2019-05-26T04:30:53.390Z,91.45
2019-05-26T04:33:21.806Z,91.13
2019-05-26T04:35:50.210Z,90.96
2019-05-26T04:38:18.620Z,90.92
2019-05-26T04:40:47.017Z,90.62
2019-05-26T04:43:15.506Z,90.58
2019-05-26T04:45:43.930Z,90.59
2019-05-26T04:48:12.422Z,90.27
2019-05-26T04:50:40.820Z,90.16
2019-05-26T04:53:09.234Z,89.60
2019-05-26T04:55:37.639Z,89.54
2019-05-26T04:58:06.057Z,88.97
2019-05-26T05:00:34.470Z,88.79
2019-05-26T05:03:02.899Z,88.87
2019-05-26T05:05:31.308Z,88.35
2019-05-26T05:07:59.731Z,87.96
2019-05-26T05:10:41.212Z,87.40
2019-05-26T05:12:58.394Z,86.81
2019-05-26T05:15:26.886Z,86.54
2019-05-26T05:17:55.304Z,86.22
2019-05-26T05:20:23.706Z,85.43
2019-05-26T05:22:52.124Z,84.54
2019-05-26T05:25:20.528Z,83.59
2019-05-26T05:27:49.021Z,82.56
2019-05-26T05:30:18.161Z,81.82
2019-05-26T05:32:46.653Z,80.07
2019-05-26T05:35:17.413Z,78.89
2019-05-26T05:37:45.852Z,78.17
2019-05-26T05:40:14.743Z,77.22
2019-05-26T05:42:43.173Z,76.64
2019-05-26T05:45:13.499Z,76.50
2019-05-26T05:47:41.996Z,75.84
2019-05-26T05:50:10.857Z,75.33
2019-05-26T05:52:39.268Z,74.43
2019-05-26T05:55:08.222Z,74.28
2019-05-26T05:57:37.055Z,74.11
2019-05-26T06:00:09.802Z,72.94
2019-05-26T06:02:38.296Z,72.38
2019-05-26T06:05:07.576Z,71.91
2019-05-26T06:07:35.988Z,71.92
2019-05-26T06:10:09.394Z,72.37
2019-05-26T06:12:38.034Z,72.56
2019-05-26T06:15:11.387Z,71.77
2019-05-26T06:17:40.374Z,71.65
2019-05-26T06:20:11.336Z,71.15
2019-05-26T06:22:39.742Z,71.01
2019-05-26T06:25:09.101Z,70.49
2019-05-26T06:27:37.499Z,70.06
2019-05-26T06:30:08.051Z,69.87
2019-05-26T06:32:36.454Z,69.55
2019-05-26T06:35:06.058Z,68.70
2019-05-26T06:37:34.459Z,68.54
2019-05-26T06:40:02.876Z,68.12
2019-05-26T06:42:31.353Z,66.96
2019-05-26T06:44:59.812Z,67.16
2019-05-26T06:47:28.214Z,66.80
2019-05-26T06:49:56.633Z,66.21
2019-05-26T06:52:25.037Z,65.60
2019-05-26T06:54:53.460Z,65.26
2019-05-26T06:57:21.934Z,64.72
2019-05-26T06:59:50.370Z,64.08
2019-05-26T07:02:18.776Z,63.47
2019-05-26T07:04:47.202Z,62.72
2019-05-26T07:07:15.608Z,62.89
2019-05-26T07:09:44.087Z,62.38
2019-05-26T07:12:12.521Z,61.30
2019-05-26T07:14:40.938Z,60.98
2019-05-26T07:17:09.343Z,61.13
2019-05-26T07:19:37.876Z,60.96
2019-05-26T07:22:06.361Z,60.69
2019-05-26T07:24:34.774Z,58.90
2019-05-26T07:27:03.185Z,59.26
2019-05-26T07:29:31.634Z,58.45
2019-05-26T07:32:00.048Z,58.19
2019-05-26T07:34:28.479Z,57.84
2019-05-26T07:36:56.881Z,57.80
2019-05-26T07:39:25.299Z,57.27
2019-05-26T07:42:09.265Z,56.54
2019-05-26T07:44:23.857Z,56.82
2019-05-26T07:46:52.283Z,55.31
2019-05-26T07:49:20.707Z,55.90
2019-05-26T07:51:49.139Z,55.80
2019-05-26T07:54:25.711Z,56.16
2019-05-26T07:56:48.393Z,55.47
2019-05-26T07:59:16.834Z,56.25
2019-05-26T08:01:45.273Z,55.81
2019-05-26T08:04:13.707Z,56.53
2019-05-26T08:06:42.101Z,56.81
2019-05-26T08:09:10.506Z,56.47
2019-05-26T08:11:38.941Z,56.68
2019-05-26T08:14:07.345Z,55.28
2019-05-26T08:16:35.773Z,54.33
2019-05-26T08:19:04.383Z,54.22
2019-05-26T08:21:32.802Z,54.41
2019-05-26T08:24:01.193Z,55.29
2019-05-26T08:26:29.611Z,54.99
2019-05-26T08:28:58.010Z,54.84
2019-05-26T08:31:26.423Z,54.99
2019-05-26T08:33:54.850Z,54.66
2019-05-26T08:36:23.283Z,55.99
2019-05-26T08:38:51.688Z,55.33
2019-05-26T08:41:20.109Z,54.01
2019-05-26T08:43:48.577Z,53.53
2019-05-26T08:46:17.005Z,54.51
2019-05-26T08:48:45.414Z,53.87
2019-05-26T08:51:13.833Z,53.61
2019-05-26T08:53:42.258Z,52.68
2019-05-26T08:56:10.662Z,52.45
2019-05-26T08:58:39.064Z,54.01
2019-05-26T09:01:07.509Z,53.06
2019-05-26T09:03:35.918Z,53.13
2019-05-26T09:06:04.619Z,52.55
2019-05-26T09:08:33.042Z,52.96
2019-05-26T09:11:01.450Z,53.24
2019-05-26T09:13:29.862Z,52.30
2019-05-26T09:15:58.311Z,51.40
2019-05-26T09:18:26.721Z,51.52
2019-05-26T09:20:55.139Z,51.40
2019-05-26T09:23:23.673Z,51.59
2019-05-26T09:25:52.091Z,51.48
2019-05-26T09:28:20.503Z,49.85
2019-05-26T09:30:48.911Z,48.74
2019-05-26T09:33:17.323Z,48.37
2019-05-26T09:35:45.821Z,48.20
2019-05-26T09:38:14.240Z,47.52
2019-05-26T09:40:42.650Z,46.29
2019-05-26T09:43:16.066Z,46.98
2019-05-26T09:45:41.213Z,46.38
2019-05-26T09:48:09.596Z,45.50
2019-05-26T09:50:38.025Z,46.75
2019-05-26T09:53:06.425Z,45.95
2019-05-26T09:55:34.845Z,46.93
2019-05-26T09:58:03.255Z,46.80
2019-05-26T10:00:31.696Z,45.81
2019-05-26T10:03:00.095Z,45.86
2019-05-26T10:08:25.840Z,44.95
2019-05-26T10:10:54.267Z,45.62
2019-05-26T10:13:31.481Z,44.90
2019-05-26T10:15:53.014Z,45.43
2019-05-26T10:18:21.421Z,45.68
2019-05-26T10:20:49.847Z,46.00
2019-05-26T10:23:18.260Z,46.25
2019-05-26T10:25:46.667Z,46.13
2019-05-26T10:28:15.095Z,45.54
2019-05-26T10:30:43.491Z,45.10
2019-05-26T10:33:11.917Z,43.46
2019-05-26T10:35:40.313Z,44.04
2019-05-26T10:38:08.730Z,43.15
2019-05-26T10:40:37.129Z,43.95
2019-05-26T10:43:05.548Z,44.12
2019-05-26T10:45:34.489Z,44.10
2019-05-26T10:48:03.072Z,44.97
2019-05-26T10:50:31.478Z,43.50
2019-05-26T10:52:59.895Z,43.67
2019-05-26T10:55:28.380Z,42.52
2019-05-26T10:57:56.793Z,41.24
2019-05-26T11:00:25.263Z,43.97
2019-05-26T11:02:53.678Z,42.41
2019-05-26T11:05:22.082Z,41.11
2019-05-26T11:07:50.525Z,40.21
2019-05-26T11:10:19.095Z,40.57
2019-05-26T11:12:47.493Z,39.26
2019-05-26T11:15:16.144Z,40.53
2019-05-26T11:17:44.636Z,40.28
2019-05-26T11:20:15.175Z,39.89
2019-05-26T11:22:43.600Z,40.88
2019-05-26T11:25:12.343Z,40.88
2019-05-26T11:27:40.763Z,39.70
2019-05-26T11:30:14.198Z,39.48
2019-05-26T11:32:42.628Z,39.18
2019-05-26T11:35:11.283Z,39.33
2019-05-26T11:37:39.683Z,37.05
2019-05-26T11:40:08.326Z,37.62
2019-05-26T11:42:36.832Z,36.43
2019-05-26T11:45:09.811Z,36.43
2019-05-26T11:47:38.230Z,35.67
2019-05-26T11:50:08.085Z,35.20
2019-05-26T11:52:36.509Z,35.38
2019-05-26T11:55:06.831Z,36.01
2019-05-26T11:57:36.651Z,35.88
2019-05-26T12:00:08.049Z,35.67
2019-05-26T12:02:36.939Z,35.89
2019-05-26T12:05:07.928Z,34.89
2019-05-26T12:07:36.389Z,34.37
2019-05-26T12:10:08.781Z,35.47
2019-05-26T12:12:37.234Z,35.81
2019-05-26T12:15:08.449Z,35.49
2019-05-26T12:17:37.237Z,36.63
2019-05-26T12:20:06.595Z,35.75
2019-05-26T12:22:35.012Z,35.77
2019-05-26T12:25:04.685Z,36.91
2019-05-26T12:27:33.103Z,36.92
2019-05-26T12:30:01.557Z,38.17
2019-05-26T12:32:30.009Z,38.25
2019-05-26T12:34:58.413Z,37.47
2019-05-26T12:37:26.829Z,37.63
2019-05-26T12:39:55.236Z,39.05
2019-05-26T12:42:23.655Z,37.84
2019-05-26T12:44:52.061Z,38.76
2019-05-26T12:47:20.480Z,38.12
2019-05-26T12:49:48.880Z,37.17
2019-05-26T12:52:17.371Z,36.43
2019-05-26T12:54:45.778Z,36.40
2019-05-26T12:57:14.195Z,35.75
2019-05-26T12:59:42.618Z,36.30
2019-05-26T13:02:11.015Z,36.97
2019-05-26T13:04:39.416Z,37.76
2019-05-26T13:07:07.821Z,37.75
2019-05-26T13:09:36.235Z,37.12
2019-05-26T13:12:04.912Z,37.80
2019-05-26T13:14:33.335Z,38.07
2019-05-26T13:17:01.866Z,39.03
2019-05-26T13:19:30.343Z,38.26
2019-05-26T13:21:58.741Z,39.22
2019-05-26T13:24:27.158Z,39.45
2019-05-26T13:26:55.563Z,38.47
2019-05-26T13:29:25.933Z,38.40
2019-05-26T13:31:54.155Z,37.66
2019-05-26T13:34:22.559Z,38.85
2019-05-26T13:36:50.969Z,38.73
2019-05-26T13:39:19.384Z,39.10
2019-05-26T13:41:47.850Z,39.51
2019-05-26T13:44:16.228Z,40.17
2019-05-26T13:46:44.634Z,39.07
2019-05-26T13:49:13.082Z,39.84
2019-05-26T13:51:41.458Z,40.99
2019-05-26T13:54:09.885Z,39.46
2019-05-26T13:56:38.295Z,40.51
2019-05-26T13:59:06.712Z,40.14
2019-05-26T14:01:35.111Z,41.22
2019-05-26T14:04:03.599Z,40.88
2019-05-26T14:06:32.020Z,40.11
2019-05-26T14:09:02.286Z,40.65
2019-05-26T14:11:30.579Z,41.17
2019-05-26T14:13:59.011Z,40.53
2019-05-26T14:16:30.160Z,40.44
2019-05-26T14:19:00.026Z,40.48
2019-05-26T14:21:28.432Z,39.37
2019-05-26T14:23:56.850Z,39.57
2019-05-26T14:26:25.255Z,38.36
2019-05-26T14:28:53.688Z,38.37
2019-05-26T14:31:22.087Z,38.51
2019-05-26T14:33:50.510Z,37.46
2019-05-26T14:36:18.918Z,37.12
2019-05-26T14:38:47.331Z,38.16
2019-05-26T14:41:15.734Z,36.35
2019-05-26T14:43:44.157Z,38.58
2019-05-26T14:46:12.558Z,36.59
2019-05-26T14:48:40.975Z,35.96
2019-05-26T14:51:09.375Z,36.74
2019-05-26T14:53:37.787Z,37.01
2019-05-26T14:56:06.204Z,36.99
2019-05-26T14:58:34.619Z,37.98
2019-05-26T15:01:03.026Z,37.83
2019-05-26T15:03:31.452Z,36.00
2019-05-26T15:06:06.010Z,36.74
2019-05-26T15:08:29.986Z,36.92
2019-05-26T15:10:58.397Z,36.33
2019-05-26T15:13:26.798Z,36.54
2019-05-26T15:16:08.828Z,36.83
2019-05-26T15:18:25.342Z,35.57
2019-05-26T15:20:55.971Z,35.75
2019-05-26T15:23:23.907Z,34.51
2019-05-26T15:25:52.319Z,35.40
2019-05-26T15:28:20.724Z,35.31
2019-05-26T15:30:49.163Z,35.43
2019-05-26T15:33:17.574Z,35.03
2019-05-26T15:35:46.001Z,34.97
2019-05-26T15:38:14.404Z,34.67
2019-05-26T15:40:42.821Z,35.72
2019-05-26T15:43:11.223Z,35.24
2019-05-26T15:45:39.709Z,35.11
2019-05-26T15:48:08.041Z,34.06
2019-05-26T15:50:36.544Z,34.55
2019-05-26T15:53:04.959Z,34.97
2019-05-26T15:55:33.375Z,37.26
2019-05-26T15:58:01.786Z,36.70
2019-05-26T16:00:30.199Z,36.12
2019-05-26T16:02:58.603Z,36.99
2019-05-26T16:05:27.024Z,38.79
2019-05-26T16:07:55.449Z,40.22
2019-05-26T16:10:23.863Z,40.59
2019-05-26T16:12:52.267Z,40.62
2019-05-26T16:15:20.823Z,40.65
2019-05-26T16:17:49.234Z,40.67
2019-05-26T16:20:18.087Z,41.55
2019-05-26T16:22:46.490Z,41.20
2019-05-26T16:25:15.356Z,41.75
2019-05-26T16:27:43.759Z,42.26
2019-05-26T16:30:12.414Z,42.32
2019-05-26T16:32:40.813Z,42.44
2019-05-26T16:35:09.578Z,42.96
2019-05-26T16:37:37.990Z,43.42
2019-05-26T16:40:08.152Z,43.69
2019-05-26T16:42:36.562Z,43.24
2019-05-26T16:45:06.986Z,42.73
2019-05-26T16:47:35.462Z,44.26
2019-05-26T16:50:05.620Z,45.01
2019-05-26T16:52:34.022Z,45.45
2019-05-26T16:55:02.493Z,45.57
2019-05-26T16:57:30.908Z,45.33
2019-05-26T16:59:59.335Z,45.32
2019-05-26T17:02:35.110Z,45.26
2019-05-26T17:05:04.496Z,45.11
2019-05-26T17:07:32.870Z,45.85
2019-05-26T17:10:01.389Z,46.09
2019-05-26T17:12:29.775Z,45.93
2019-05-26T17:14:58.192Z,45.93
2019-05-26T17:17:26.609Z,46.80
2019-05-26T17:19:55.027Z,46.40
2019-05-26T17:22:23.433Z,46.40
2019-05-26T17:24:51.873Z,46.67
2019-05-26T17:27:20.452Z,46.67
2019-05-26T17:29:48.865Z,47.13
2019-05-26T17:32:17.273Z,47.13
2019-05-26T17:34:45.672Z,46.64
2019-05-26T17:37:14.093Z,46.98
2019-05-26T17:39:42.507Z,46.94
2019-05-26T17:42:10.989Z,46.79
2019-05-26T17:44:39.410Z,47.40
2019-05-26T17:47:07.837Z,48.09
2019-05-26T17:49:36.324Z,48.24
2019-05-26T17:52:04.883Z,48.43
2019-05-26T17:54:33.288Z,48.36
2019-05-26T17:57:01.742Z,48.87
2019-05-26T17:59:30.117Z,49.13
2019-05-26T18:01:58.538Z,49.18
2019-05-26T18:04:26.954Z,49.53
2019-05-26T18:06:55.377Z,49.47
2019-05-26T18:09:23.779Z,49.72
2019-05-26T18:11:52.192Z,50.21
2019-05-26T18:14:20.598Z,50.48
2019-05-26T18:16:49.007Z,50.27
2019-05-26T18:19:17.433Z,50.85
2019-05-26T18:21:45.873Z,51.28
2019-05-26T18:24:14.284Z,50.89
2019-05-26T18:26:42.750Z,50.87
2019-05-26T18:29:11.146Z,51.03
2019-05-26T18:31:39.569Z,51.19
2019-05-26T18:34:07.977Z,51.70
2019-05-26T18:36:36.399Z,52.06
2019-05-26T18:39:07.916Z,51.73
2019-05-26T18:41:36.326Z,51.60
2019-05-26T18:44:05.024Z,52.22
2019-05-26T18:46:33.450Z,51.83
2019-05-26T18:49:01.861Z,52.76
2019-05-26T18:51:30.275Z,52.06
2019-05-26T18:53:58.683Z,51.78
2019-05-26T18:56:27.121Z,52.37
2019-05-26T18:58:55.523Z,52.32
2019-05-26T19:01:23.981Z,52.40
2019-05-26T19:03:52.383Z,52.77
2019-05-26T19:06:20.902Z,52.83
2019-05-26T19:08:49.305Z,53.16
2019-05-26T19:11:17.723Z,52.81
2019-05-26T19:13:46.136Z,52.86
2019-05-26T19:16:14.558Z,53.59
2019-05-26T19:18:42.968Z,53.17
2019-05-26T19:21:11.407Z,53.34
2019-05-26T19:23:39.802Z,53.89
2019-05-26T19:26:08.237Z,54.37
2019-05-26T19:28:36.656Z,54.59
2019-05-26T19:31:05.132Z,54.32
2019-05-26T19:33:33.561Z,54.15
2019-05-26T19:36:01.965Z,55.06
2019-05-26T19:38:30.402Z,54.82
2019-05-26T19:40:58.863Z,54.90
2019-05-26T19:43:27.246Z,54.54
2019-05-26T19:45:55.725Z,54.44
2019-05-26T19:48:35.537Z,54.49
2019-05-26T19:50:54.317Z,54.76
2019-05-26T19:53:22.734Z,55.19
2019-05-26T19:55:51.213Z,55.33
2019-05-26T19:58:19.797Z,55.26
2019-05-26T20:00:48.209Z,55.74
2019-05-26T20:03:16.639Z,55.98
2019-05-26T20:05:45.030Z,56.14
2019-05-26T20:08:13.585Z,55.89
2019-05-26T20:10:41.959Z,56.06
2019-05-26T20:13:10.378Z,55.93
2019-05-26T20:15:38.839Z,56.09
2019-05-26T20:18:07.236Z,56.27
2019-05-26T20:20:35.647Z,56.11
2019-05-26T20:23:04.447Z,56.58
2019-05-26T20:25:32.873Z,56.65
2019-05-26T20:28:01.296Z,56.51
2019-05-26T20:30:29.705Z,56.45
2019-05-26T20:32:58.131Z,56.91
2019-05-26T20:35:26.535Z,57.31
2019-05-26T20:37:54.945Z,57.21
2019-05-26T20:40:23.383Z,56.96
2019-05-26T20:42:51.812Z,56.96
2019-05-26T20:45:20.285Z,56.77
2019-05-26T20:47:48.703Z,57.27
2019-05-26T20:50:28.709Z,57.14
2019-05-26T20:52:47.684Z,57.27
2019-05-26T20:55:16.366Z,57.46
2019-05-26T20:57:44.779Z,57.44
2019-05-26T21:00:15.163Z,57.57
2019-05-26T21:02:43.687Z,57.72
2019-05-26T21:05:12.638Z,57.64
2019-05-26T21:07:41.049Z,58.00
2019-05-26T21:10:10.591Z,57.88
2019-05-26T21:12:39.009Z,57.53
2019-05-26T21:15:08.250Z,57.36
2019-05-26T21:17:36.672Z,57.32
2019-05-26T21:20:08.867Z,57.82
2019-05-26T21:22:37.299Z,57.72
2019-05-26T21:25:06.582Z,57.85
2019-05-26T21:27:35.006Z,58.43
2019-05-26T21:30:05.350Z,58.24
2019-05-26T21:32:33.838Z,58.06
2019-05-26T21:35:02.337Z,58.18
2019-05-26T21:37:30.723Z,58.21
2019-05-26T21:39:59.125Z,58.42
2019-05-26T21:42:27.550Z,58.45
2019-05-26T21:44:55.946Z,58.71
2019-05-26T21:47:24.355Z,58.71
2019-05-26T21:49:52.772Z,58.66
2019-05-26T21:52:21.175Z,58.84
2019-05-26T21:54:49.593Z,58.62
2019-05-26T21:57:17.995Z,59.03
2019-05-26T21:59:46.418Z,58.86
2019-05-26T22:02:14.823Z,58.28
2019-05-26T22:04:43.241Z,58.13
2019-05-26T22:07:11.974Z,58.49
2019-05-26T22:09:40.451Z,58.87
2019-05-26T22:12:08.862Z,58.85
2019-05-26T22:14:37.267Z,58.86
2019-05-26T22:17:05.737Z,59.20
2019-05-26T22:19:34.151Z,59.11
2019-05-26T22:22:02.554Z,59.28
2019-05-26T22:24:30.992Z,59.64
2019-05-26T22:26:59.406Z,59.59
2019-05-26T22:29:27.827Z,59.48
2019-05-26T22:31:56.221Z,59.64
2019-05-26T22:34:24.638Z,59.63
2019-05-26T22:36:53.041Z,60.07
2019-05-26T22:39:21.459Z,60.35
2019-05-26T22:41:49.896Z,60.22
2019-05-26T22:44:18.301Z,60.60
2019-05-26T22:46:46.704Z,61.07
2019-05-26T22:49:15.129Z,61.02
2019-05-26T22:51:43.536Z,61.33
2019-05-26T22:54:12.030Z,61.46
2019-05-26T22:56:40.441Z,61.58
2019-05-26T22:59:08.859Z,61.71
2019-05-26T23:01:37.266Z,62.42
2019-05-26T23:04:05.758Z,62.60
2019-05-26T23:06:34.160Z,62.54
2019-05-26T23:09:02.677Z,62.17
2019-05-26T23:11:31.084Z,62.60
2019-05-26T23:13:59.501Z,62.61
2019-05-26T23:16:27.908Z,62.98
2019-05-26T23:18:56.323Z,62.89
2019-05-26T23:21:24.725Z,62.80
2019-05-26T23:23:53.155Z,62.64
2019-05-26T23:26:21.559Z,62.81
2019-05-26T23:28:49.979Z,63.04
2019-05-26T23:31:18.388Z,63.20
2019-05-26T23:33:46.809Z,63.37
2019-05-26T23:36:15.223Z,63.66
2019-05-26T23:38:43.649Z,63.71
2019-05-26T23:41:12.064Z,63.75
2019-05-26T23:43:40.478Z,64.12
2019-05-26T23:46:08.891Z,64.32
2019-05-26T23:48:37.295Z,64.35
2019-05-26T23:51:05.716Z,64.69
2019-05-26T23:53:34.121Z,65.13
2019-05-26T23:56:02.543Z,65.21
2019-05-26T23:58:30.959Z,65.47
